Time;durP1;ratioP1;P1;durP2;ratioP2;P2;SDS_P1;SDS_P2;PMS_P1;PMS_P2;Temp;Humidity;BMP_temperature;BMP_pressure;BME280_temperature;BME280_humidity;BME280_pressure;Samples;Min_cycle;Max_cycle;Signal;HPM_P1;HPM_P2
2023/03/29 00:00:50;;;;;;;;;;;;;;;;;;5074180;28;19909;-74
2023/03/29 00:03:17;;;;;;;;;;;;;;;;;;5073009;28;19952;-72
2023/03/29 00:05:43;;;;;;;;;;;;;;;;;;5074202;28;19970;-72
2023/03/29 00:08:13;;;;;;;;;;;;;;;;;;5074083;28;19908;-72
2023/03/29 00:10:40;;;;;;;;;;;;;;;;;;5073818;28;19995;-72
2023/03/29 00:13:07;;;;;;;;;;;;;;;;;;5072656;28;20273;-72
2023/03/29 00:15:33;;;;;;;;;;;;;;;;;;5073960;28;20327;-73
2023/03/29 00:18:00;;;;;;;;;;;;;;;;;;5073967;28;19909;-73
2023/03/29 00:20:27;;;;;;;;;;;;;;;;;;5073948;28;19953;-73
2023/03/29 00:22:54;;;;;;;;;;;;;;;;;;5074160;28;20023;-72
2023/03/29 00:25:20;;;;;;;;;;;;;;;;;;5074411;28;19913;-73
2023/03/29 00:27:47;;;;;;;;;;;;;;;;;;5073993;28;20404;-73
2023/03/29 00:30:14;;;;;;;;;;;;;;;;;;5073787;28;19909;-74
2023/03/29 00:32:40;;;;;;;;;;;;;;;;;;5073781;28;20377;-74
2023/03/29 00:35:10;;;;;;;;;;;;;;;;;;5073810;28;20372;-72
2023/03/29 00:37:37;;;;;;;;;;;;;;;;;;5073906;28;19987;-73
2023/03/29 00:40:08;;;;;;;;;;;;;;;;;;5073453;28;19927;-73
2023/03/29 00:42:46;;;;;;;;;;;;;;;;;;5072499;28;21417;-73
2023/03/29 00:45:13;;;;;;;;;;;;;;;;;;5073626;28;20033;-73
2023/03/29 00:47:40;;;;;;;;;;;;;;;;;;5073745;28;20378;-73
2023/03/29 00:50:06;;;;;;;;;;;;;;;;;;5073564;28;19915;-74
2023/03/29 00:52:33;;;;;;;;;;;;;;;;;;5073916;28;19909;-73
2023/03/29 00:55:00;;;;;;;;;;;;;;;;;;5073544;28;19908;-73
2023/03/29 00:57:26;;;;;;;;;;;;;;;;;;5073531;28;19915;-73
2023/03/29 00:59:53;;;;;;;;;;;;;;;;;;5073519;28;19935;-73
2023/03/29 01:02:20;;;;;;;;;;;;;;;;;;5073506;28;19930;-72
2023/03/29 01:04:47;;;;;;;;;;;;;;;;;;5073722;28;19908;-73
2023/03/29 01:07:16;;;;;;;;;;;;;;;;;;5072164;28;19916;-73
2023/03/29 01:09:43;;;;;;;;;;;;;;;;;;5073408;28;19909;-73
2023/03/29 01:12:10;;;;;;;;;;;;;;;;;;5073933;28;20264;-72
2023/03/29 01:14:40;;;;;;;;;;;;;;;;;;5073351;28;19944;-73
2023/03/29 01:17:06;;;;;;;;;;;;;;;;;;5073509;28;19916;-72
2023/03/29 01:19:33;;;;;;;;;;;;;;;;;;5073394;28;19958;-72
2023/03/29 01:22:00;;;;;;;;;;;;;;;;;;5074473;28;20342;-74
2023/03/29 01:24:28;;;;;;;;;;;;;;;;;;5077629;28;19989;-74
2023/03/29 01:26:54;;;;;;;;;;;;;;;;;;5077149;28;19915;-73
2023/03/29 01:29:21;;;;;;;;;;;;;;;;;;5077144;28;19989;-72
2023/03/29 01:31:47;;;;;;;;;;;;;;;;;;5077102;28;19958;-73
2023/03/29 01:34:14;;;;;;;;;;;;;;;;;;5077025;28;19931;-73
2023/03/29 01:36:44;;;;;;;;;;;;;;;;;;5076952;28;20399;-74
2023/03/29 01:39:13;;;;;;;;;;;;;;;;;;5076930;28;19951;-73
2023/03/29 01:41:43;;;;;;;;;;;;;;;;;;5075233;28;19917;-72
2023/03/29 01:44:10;;;;;;;;;;;;;;;;;;5076808;28;19913;-73
2023/03/29 01:46:39;;;;;;;;;;;;;;;;;;5075447;28;19909;-73
2023/03/29 01:49:09;;;;;;;;;;;;;;;;;;5076722;28;20365;-74
2023/03/29 01:51:36;;;;;;;;;;;;;;;;;;5076643;28;20449;-74
2023/03/29 01:54:03;;;;;;;;;;;;;;;;;;5076573;28;20369;-73
2023/03/29 01:56:29;;;;;;;;;;;;;;;;;;5076506;28;19908;-73
2023/03/29 01:58:56;;;;;;;;;;;;;;;;;;5076576;28;19908;-72
2023/03/29 02:01:24;;;;;;;;;;;;;;;;;;5076505;28;19908;-73
2023/03/29 02:03:53;;;;;;;;;;;;;;;;;;5076424;28;19912;-72
2023/03/29 02:06:23;;;;;;;;;;;;;;;;;;5075131;28;19915;-72
2023/03/29 02:08:50;;;;;;;;;;;;;;;;;;5076579;28;19915;-72
2023/03/29 02:11:16;;;;;;;;;;;;;;;;;;5076316;28;19915;-73
2023/03/29 02:13:43;;;;;;;;;;;;;;;;;;5076305;28;19931;-72
2023/03/29 02:16:11;;;;;;;;;;;;;;;;;;5074945;28;19916;-73
2023/03/29 02:18:41;;;;;;;;;;;;;;;;;;5076184;28;19999;-73
2023/03/29 02:21:08;;;;;;;;;;;;;;;;;;5076233;28;19916;-72
2023/03/29 02:23:34;;;;;;;;;;;;;;;;;;5076026;28;19918;-73
2023/03/29 02:26:01;;;;;;;;;;;;;;;;;;5076398;28;20321;-72
2023/03/29 02:28:27;;;;;;;;;;;;;;;;;;5076035;28;19908;-73
2023/03/29 02:31:03;;;;;;;;;;;;;;;;;;5076033;28;19915;-73
2023/03/29 02:33:32;;;;;;;;;;;;;;;;;;5075725;28;20372;-72
2023/03/29 02:35:59;;;;;;;;;;;;;;;;;;5075874;28;19908;-73
2023/03/29 02:38:26;;;;;;;;;;;;;;;;;;5076089;28;19916;-73
2023/03/29 02:40:54;;;;;;;;;;;;;;;;;;5075696;28;19916;-73
2023/03/29 02:43:20;;;;;;;;;;;;;;;;;;5075646;28;19917;-74
2023/03/29 02:45:47;;;;;;;;;;;;;;;;;;5075698;28;19912;-72
2023/03/29 02:48:13;;;;;;;;;;;;;;;;;;5075910;28;19909;-72
2023/03/29 02:50:40;;;;;;;;;;;;;;;;;;5075641;28;19912;-72
2023/03/29 02:53:07;;;;;;;;;;;;;;;;;;5075675;28;19915;-73
2023/03/29 02:55:33;;;;;;;;;;;;;;;;;;5075512;28;19908;-73
2023/03/29 02:58:06;;;;;;;;;;;;;;;;;;5075610;28;19909;-72
2023/03/29 03:00:33;;;;;;;;;;;;;;;;;;5075743;28;20250;-73
2023/03/29 03:03:00;;;;;;;;;;;;;;;;;;5075461;28;19913;-74
2023/03/29 03:05:26;;;;;;;;;;;;;;;;;;5075483;28;19909;-74
2023/03/29 03:07:53;;;;;;;;;;;;;;;;;;5075724;28;19970;-72
2023/03/29 03:10:20;;;;;;;;;;;;;;;;;;5075270;28;19909;-73
2023/03/29 03:12:49;;;;;;;;;;;;;;;;;;5075218;28;19909;-73
2023/03/29 03:15:16;;;;;;;;;;;;;;;;;;5075205;28;19916;-73
2023/03/29 03:17:43;;;;;;;;;;;;;;;;;;5075075;28;20369;-72
2023/03/29 03:20:13;;;;;;;;;;;;;;;;;;5075031;28;19909;-73
2023/03/29 03:22:39;;;;;;;;;;;;;;;;;;5075024;28;19913;-72
2023/03/29 03:25:09;;;;;;;;;;;;;;;;;;5074910;28;19991;-73
2023/03/29 03:27:35;;;;;;;;;;;;;;;;;;5074822;28;19919;-73
2023/03/29 03:30:05;;;;;;;;;;;;;;;;;;5075117;28;20329;-72
2023/03/29 03:32:32;;;;;;;;;;;;;;;;;;5074771;28;19908;-73
2023/03/29 03:34:59;;;;;;;;;;;;;;;;;;5074706;28;19908;-74
2023/03/29 03:37:26;;;;;;;;;;;;;;;;;;5075229;28;19924;-72
2023/03/29 03:39:53;;;;;;;;;;;;;;;;;;5074389;28;19908;-73
2023/03/29 03:42:19;;;;;;;;;;;;;;;;;;5074777;28;20440;-73
2023/03/29 03:44:46;;;;;;;;;;;;;;;;;;5074477;28;19917;-72
2023/03/29 03:47:13;;;;;;;;;;;;;;;;;;5072426;28;19955;-72
2023/03/29 03:49:43;;;;;;;;;;;;;;;;;;5074422;28;19999;-73
2023/03/29 03:52:10;;;;;;;;;;;;;;;;;;5074362;28;19909;-74
2023/03/29 03:54:36;;;;;;;;;;;;;;;;;;5074554;28;19958;-73
2023/03/29 03:57:03;;;;;;;;;;;;;;;;;;5074264;28;19908;-73
2023/03/29 03:59:29;;;;;;;;;;;;;;;;;;5074230;28;19909;-73
2023/03/29 04:01:57;;;;;;;;;;;;;;;;;;5074334;28;19991;-73
2023/03/29 04:04:24;;;;;;;;;;;;;;;;;;5074264;28;19908;-72
2023/03/29 04:06:51;;;;;;;;;;;;;;;;;;5074623;28;19951;-73
2023/03/29 04:09:22;;;;;;;;;;;;;;;;;;5074099;28;19908;-72
2023/03/29 04:11:51;;;;;;;;;;;;;;;;;;5074054;28;20299;-73
2023/03/29 04:14:19;;;;;;;;;;;;;;;;;;5073965;28;19909;-73
2023/03/29 04:16:46;;;;;;;;;;;;;;;;;;5073947;28;19920;-72
2023/03/29 04:19:13;;;;;;;;;;;;;;;;;;5073933;28;20288;-74
2023/03/29 04:21:40;;;;;;;;;;;;;;;;;;5074125;28;19908;-73
2023/03/29 04:24:06;;;;;;;;;;;;;;;;;;5074102;28;19909;-73
2023/03/29 04:26:33;;;;;;;;;;;;;;;;;;5073927;28;20022;-73
2023/03/29 04:28:59;;;;;;;;;;;;;;;;;;5073794;28;19974;-74
2023/03/29 04:31:26;;;;;;;;;;;;;;;;;;5074189;28;19916;-73
2023/03/29 04:33:53;;;;;;;;;;;;;;;;;;5074143;28;20281;-74
2023/03/29 04:36:20;;;;;;;;;;;;;;;;;;5073894;28;19970;-73
2023/03/29 04:38:51;;;;;;;;;;;;;;;;;;5073658;28;20407;-73
2023/03/29 04:41:17;;;;;;;;;;;;;;;;;;5073733;28;19920;-72
2023/03/29 04:43:47;;;;;;;;;;;;;;;;;;5072412;28;19963;-73
2023/03/29 04:46:14;;;;;;;;;;;;;;;;;;5073909;28;20037;-74
2023/03/29 04:48:40;;;;;;;;;;;;;;;;;;5073652;28;20279;-74
2023/03/29 04:51:07;;;;;;;;;;;;;;;;;;5073580;28;19915;-72
2023/03/29 04:53:33;;;;;;;;;;;;;;;;;;5073650;28;20386;-73
2023/03/29 04:56:09;;;;;;;;;;;;;;;;;;5073646;28;19909;-74
2023/03/29 04:58:36;;;;;;;;;;;;;;;;;;5077363;28;19951;-73
2023/03/29 05:01:02;;;;;;;;;;;;;;;;;;5077728;28;19908;-73
2023/03/29 05:03:29;;;;;;;;;;;;;;;;;;5078081;28;19944;-74
2023/03/29 05:05:58;;;;;;;;;;;;;;;;;;5077591;28;19951;-72
2023/03/29 05:08:25;;;;;;;;;;;;;;;;;;5077849;28;19966;-74
2023/03/29 05:10:51;;;;;;;;;;;;;;;;;;5077505;28;19991;-72
2023/03/29 05:13:18;;;;;;;;;;;;;;;;;;5077609;28;20395;-73
2023/03/29 05:15:44;;;;;;;;;;;;;;;;;;5077722;28;19909;-73
2023/03/29 05:18:11;;;;;;;;;;;;;;;;;;5077395;28;20396;-72
2023/03/29 05:20:39;;;;;;;;;;;;;;;;;;5077558;28;19916;-73
2023/03/29 05:23:05;;;;;;;;;;;;;;;;;;5075826;28;19916;-73
2023/03/29 05:25:32;;;;;;;;;;;;;;;;;;5075702;28;19930;-73
2023/03/29 05:27:59;;;;;;;;;;;;;;;;;;5077204;28;19909;-72
2023/03/29 05:30:25;;;;;;;;;;;;;;;;;;5077523;28;19919;-71
2023/03/29 05:32:52;;;;;;;;;;;;;;;;;;5077344;28;20290;-74
2023/03/29 05:35:19;;;;;;;;;;;;;;;;;;5077082;28;19916;-73
2023/03/29 05:37:46;;;;;;;;;;;;;;;;;;5076938;28;19919;-72
2023/03/29 05:40:12;;;;;;;;;;;;;;;;;;5076683;28;19912;-73
2023/03/29 05:42:39;;;;;;;;;;;;;;;;;;5075173;28;19985;-72
2023/03/29 05:45:05;;;;;;;;;;;;;;;;;;5076929;28;20003;-72
2023/03/29 05:47:35;;;;;;;;;;;;;;;;;;5076746;28;20333;-71
2023/03/29 05:50:02;;;;;;;;;;;;;;;;;;5075407;28;19909;-73
2023/03/29 05:52:31;;;;;;;;;;;;;;;;;;5076686;28;19995;-72
2023/03/29 05:54:57;;;;;;;;;;;;;;;;;;5076678;28;19916;-71
2023/03/29 05:57:24;;;;;;;;;;;;;;;;;;5076512;28;19915;-72
2023/03/29 05:59:55;;;;;;;;;;;;;;;;;;5076564;28;19919;-71
2023/03/29 06:02:21;;;;;;;;;;;;;;;;;;5076460;28;19920;-72
2023/03/29 06:04:48;;;;;;;;;;;;;;;;;;5076682;28;20057;-73
2023/03/29 06:07:15;;;;;;;;;;;;;;;;;;5076429;28;19915;-71
2023/03/29 06:09:44;;;;;;;;;;;;;;;;;;5075715;28;19908;-72
2023/03/29 06:12:12;;;;;;;;;;;;;;;;;;5076371;28;19908;-72
2023/03/29 06:14:39;;;;;;;;;;;;;;;;;;5076301;28;19912;-72
2023/03/29 06:17:05;;;;;;;;;;;;;;;;;;5076413;28;20395;-73
2023/03/29 06:19:35;;;;;;;;;;;;;;;;;;5076218;28;20395;-73
2023/03/29 06:22:02;;;;;;;;;;;;;;;;;;5074795;28;20424;-72
2023/03/29 06:24:28;;;;;;;;;;;;;;;;;;5076506;28;19912;-72
2023/03/29 06:26:55;;;;;;;;;;;;;;;;;;5076348;28;19916;-73
2023/03/29 06:29:21;;;;;;;;;;;;;;;;;;5074753;28;19913;-72
2023/03/29 06:31:48;;;;;;;;;;;;;;;;;;5076021;28;19916;-72
2023/03/29 06:34:16;;;;;;;;;;;;;;;;;;5076434;28;19909;-72
2023/03/29 06:36:49;;;;;;;;;;;;;;;;;;5076196;28;19910;-74
2023/03/29 06:39:16;;;;;;;;;;;;;;;;;;5075804;28;19909;-72
2023/03/29 06:41:43;;;;;;;;;;;;;;;;;;5075614;28;19958;-72
2023/03/29 06:44:12;;;;;;;;;;;;;;;;;;5075800;28;19955;-72
2023/03/29 06:46:39;;;;;;;;;;;;;;;;;;5075998;28;19915;-72
2023/03/29 06:49:09;;;;;;;;;;;;;;;;;;5075535;28;19967;-73
2023/03/29 06:51:36;;;;;;;;;;;;;;;;;;5075623;28;19919;-73
2023/03/29 06:54:03;;;;;;;;;;;;;;;;;;5074158;28;19909;-73
2023/03/29 06:56:30;;;;;;;;;;;;;;;;;;5075803;28;19915;-73
2023/03/29 06:58:57;;;;;;;;;;;;;;;;;;5075492;28;19916;-72
2023/03/29 07:01:23;;;;;;;;;;;;;;;;;;5075563;28;19948;-72
2023/03/29 07:03:50;;;;;;;;;;;;;;;;;;5075367;28;19956;-73
2023/03/29 07:06:19;;;;;;;;;;;;;;;;;;5075375;28;19995;-72
2023/03/29 07:08:46;;;;;;;;;;;;;;;;;;5075281;28;19919;-72
2023/03/29 07:11:13;;;;;;;;;;;;;;;;;;5075302;28;19909;-73
2023/03/29 07:13:40;;;;;;;;;;;;;;;;;;5075211;28;19998;-72
2023/03/29 07:16:11;;;;;;;;;;;;;;;;;;5075161;28;19908;-73
2023/03/29 07:18:37;;;;;;;;;;;;;;;;;;5075383;28;20388;-72
2023/03/29 07:21:03;;;;;;;;;;;;;;;;;;5074844;28;19915;-73
2023/03/29 07:23:30;;;;;;;;;;;;;;;;;;5074970;28;19997;-72
2023/03/29 07:26:02;;;;;;;;;;;;;;;;;;5075314;28;19930;-74
2023/03/29 07:28:29;;;;;;;;;;;;;;;;;;5074883;28;19954;-72
2023/03/29 07:31:00;;;;;;;;;;;;;;;;;;5074849;28;19918;-73
2023/03/29 07:33:30;;;;;;;;;;;;;;;;;;5074836;28;19923;-71
2023/03/29 07:35:57;;;;;;;;;;;;;;;;;;5075100;28;20327;-73
2023/03/29 07:38:24;;;;;;;;;;;;;;;;;;5074661;28;19908;-73
2023/03/29 07:40:52;;;;;;;;;;;;;;;;;;5074235;28;19990;-72
2023/03/29 07:43:19;;;;;;;;;;;;;;;;;;5074482;28;19920;-72
2023/03/29 07:45:45;;;;;;;;;;;;;;;;;;5074896;28;20385;-73
2023/03/29 07:48:12;;;;;;;;;;;;;;;;;;5074371;28;19915;-72
2023/03/29 07:50:42;;;;;;;;;;;;;;;;;;5074560;28;19909;-73
2023/03/29 07:53:08;;;;;;;;;;;;;;;;;;5074379;28;19909;-71
2023/03/29 07:55:41;;;;;;;;;;;;;;;;;;5074307;28;19958;-71
2023/03/29 07:58:07;;;;;;;;;;;;;;;;;;5074511;28;19909;-73
2023/03/29 08:00:34;;;;;;;;;;;;;;;;;;5074268;28;20373;-71
2023/03/29 08:03:02;;;;;;;;;;;;;;;;;;5074145;28;19913;-74
2023/03/29 08:05:29;;;;;;;;;;;;;;;;;;5074268;28;20287;-72
2023/03/29 08:07:55;;;;;;;;;;;;;;;;;;5074136;28;19961;-73
2023/03/29 08:10:21;;;;;;;;;;;;;;;;;;5074117;28;19909;-73
2023/03/29 08:12:48;;;;;;;;;;;;;;;;;;5074277;28;19909;-72
2023/03/29 08:15:17;;;;;;;;;;;;;;;;;;5074048;28;20348;-73
2023/03/29 08:17:44;;;;;;;;;;;;;;;;;;5072688;28;19909;-72
2023/03/29 08:20:10;;;;;;;;;;;;;;;;;;5073998;28;19923;-72
2023/03/29 08:22:40;;;;;;;;;;;;;;;;;;5073935;28;20006;-73
2023/03/29 08:25:06;;;;;;;;;;;;;;;;;;5074091;28;19944;-72
2023/03/29 08:27:32;;;;;;;;;;;;;;;;;;5073882;28;19944;-72
2023/03/29 08:29:59;;;;;;;;;;;;;;;;;;5074244;28;19943;-72
2023/03/29 08:32:25;;;;;;;;;;;;;;;;;;5073254;28;19912;-73
2023/03/29 08:34:52;;;;;;;;;;;;;;;;;;5073832;28;20316;-73
2023/03/29 08:37:19;;;;;;;;;;;;;;;;;;5073850;28;19991;-72
2023/03/29 08:39:45;;;;;;;;;;;;;;;;;;5073743;28;20000;-73
2023/03/29 08:42:12;;;;;;;;;;;;;;;;;;5073281;28;19927;-73
2023/03/29 08:44:38;;;;;;;;;;;;;;;;;;5073667;28;19955;-73
2023/03/29 08:47:06;;;;;;;;;;;;;;;;;;5073812;28;19995;-73
2023/03/29 08:49:32;;;;;;;;;;;;;;;;;;5073616;28;19909;-73
2023/03/29 08:51:59;;;;;;;;;;;;;;;;;;5073841;28;19957;-72
2023/03/29 08:54:26;;;;;;;;;;;;;;;;;;5073608;28;19912;-73
2023/03/29 08:56:52;;;;;;;;;;;;;;;;;;5072334;28;19913;-72
2023/03/29 08:59:21;;;;;;;;;;;;;;;;;;5072208;28;19932;-73
2023/03/29 09:01:47;;;;;;;;;;;;;;;;;;5073514;28;20088;-73
2023/03/29 09:04:14;;;;;;;;;;;;;;;;;;5073444;28;19919;-72
2023/03/29 09:06:41;;;;;;;;;;;;;;;;;;5073645;28;19954;-73
2023/03/29 09:09:08;;;;;;;;;;;;;;;;;;5073554;28;19923;-72
2023/03/29 09:11:35;;;;;;;;;;;;;;;;;;5073404;28;20379;-72
2023/03/29 09:14:01;;;;;;;;;;;;;;;;;;5073456;28;20340;-72
2023/03/29 09:16:28;;;;;;;;;;;;;;;;;;5073457;28;19918;-73
2023/03/29 09:18:54;;;;;;;;;;;;;;;;;;5073393;28;20059;-73
2023/03/29 09:21:21;;;;;;;;;;;;;;;;;;5073765;28;19954;-72
2023/03/29 09:23:47;;;;;;;;;;;;;;;;;;5073581;28;19919;-73
2023/03/29 09:26:14;;;;;;;;;;;;;;;;;;5072274;28;19909;-72
2023/03/29 09:28:40;;;;;;;;;;;;;;;;;;5073231;28;19908;-73
2023/03/29 09:31:07;;;;;;;;;;;;;;;;;;5073659;28;19915;-72
2023/03/29 09:33:36;;;;;;;;;;;;;;;;;;5073525;28;19909;-73
2023/03/29 09:36:02;;;;;;;;;;;;;;;;;;5073177;28;19909;-72
2023/03/29 09:38:29;;;;;;;;;;;;;;;;;;5073066;28;19909;-74
2023/03/29 09:40:56;;;;;;;;;;;;;;;;;;5073610;28;19919;-72
2023/03/29 09:43:23;;;;;;;;;;;;;;;;;;5073907;28;19964;-72
2023/03/29 09:45:52;;;;;;;;;;;;;;;;;;5077081;28;19912;-74
2023/03/29 09:48:21;;;;;;;;;;;;;;;;;;5075480;28;19915;-73
2023/03/29 09:50:47;;;;;;;;;;;;;;;;;;5076712;28;19908;-74
2023/03/29 09:53:14;;;;;;;;;;;;;;;;;;5077040;28;19974;-73
2023/03/29 09:55:43;;;;;;;;;;;;;;;;;;5076670;28;19916;-73
2023/03/29 09:58:09;;;;;;;;;;;;;;;;;;5076562;28;19908;-73
2023/03/29 10:00:36;;;;;;;;;;;;;;;;;;5075323;28;20296;-72
2023/03/29 10:03:05;;;;;;;;;;;;;;;;;;5076861;28;19912;-73
2023/03/29 10:05:31;;;;;;;;;;;;;;;;;;5076511;28;20038;-72
2023/03/29 10:07:58;;;;;;;;;;;;;;;;;;5075237;28;20285;-74
2023/03/29 10:10:24;;;;;;;;;;;;;;;;;;5076376;28;20399;-73
2023/03/29 10:12:54;;;;;;;;;;;;;;;;;;5076346;28;19912;-73
2023/03/29 10:15:20;;;;;;;;;;;;;;;;;;5076574;28;19908;-72
2023/03/29 10:17:47;;;;;;;;;;;;;;;;;;5076268;28;19938;-74
2023/03/29 10:20:13;;;;;;;;;;;;;;;;;;5076272;28;20403;-73
2023/03/29 10:22:41;;;;;;;;;;;;;;;;;;5076643;28;20424;-73
2023/03/29 10:25:07;;;;;;;;;;;;;;;;;;5074864;28;19909;-73
2023/03/29 10:27:34;;;;;;;;;;;;;;;;;;5076141;28;20445;-74
2023/03/29 10:30:00;;;;;;;;;;;;;;;;;;5076052;28;19943;-74
2023/03/29 10:32:26;;;;;;;;;;;;;;;;;;5076001;28;19908;-74
2023/03/29 10:34:53;;;;;;;;;;;;;;;;;;5076449;28;19908;-72
2023/03/29 10:37:19;;;;;;;;;;;;;;;;;;5076228;28;19916;-74
2023/03/29 10:39:45;;;;;;;;;;;;;;;;;;5075933;28;19909;-72
2023/03/29 10:42:12;;;;;;;;;;;;;;;;;;5074343;28;20297;-73
2023/03/29 10:44:38;;;;;;;;;;;;;;;;;;5075827;28;19915;-72
2023/03/29 10:47:08;;;;;;;;;;;;;;;;;;5076123;28;19916;-72
2023/03/29 10:49:34;;;;;;;;;;;;;;;;;;5075923;28;19913;-73
2023/03/29 10:52:01;;;;;;;;;;;;;;;;;;5075654;28;19908;-73
2023/03/29 10:54:30;;;;;;;;;;;;;;;;;;5075101;28;20381;-73
2023/03/29 10:56:57;;;;;;;;;;;;;;;;;;5075480;28;19916;-72
2023/03/29 10:59:27;;;;;;;;;;;;;;;;;;5075335;28;20400;-73
2023/03/29 11:01:54;;;;;;;;;;;;;;;;;;5075568;28;19931;-73
2023/03/29 11:04:21;;;;;;;;;;;;;;;;;;5075432;28;20438;-72
2023/03/29 11:06:48;;;;;;;;;;;;;;;;;;5074058;28;19912;-73
2023/03/29 11:09:15;;;;;;;;;;;;;;;;;;5075326;28;20365;-74
2023/03/29 11:11:43;;;;;;;;;;;;;;;;;;5075563;28;19948;-73
2023/03/29 11:14:13;;;;;;;;;;;;;;;;;;5075442;28;19909;-72
2023/03/29 11:16:40;;;;;;;;;;;;;;;;;;5074126;28;19909;-73
2023/03/29 11:19:07;;;;;;;;;;;;;;;;;;5073800;28;19909;-74
2023/03/29 11:21:37;;;;;;;;;;;;;;;;;;5075063;28;19954;-75
2023/03/29 11:24:03;;;;;;;;;;;;;;;;;;5075238;28;19965;-74
2023/03/29 11:26:30;;;;;;;;;;;;;;;;;;5075141;28;19987;-73
2023/03/29 11:28:59;;;;;;;;;;;;;;;;;;5074980;28;20360;-73
2023/03/29 11:31:26;;;;;;;;;;;;;;;;;;5075357;28;19917;-73
2023/03/29 11:33:53;;;;;;;;;;;;;;;;;;5074788;28;19908;-74
2023/03/29 11:36:22;;;;;;;;;;;;;;;;;;5074775;28;20012;-74
2023/03/29 11:38:49;;;;;;;;;;;;;;;;;;5074669;28;19908;-73
2023/03/29 11:41:16;;;;;;;;;;;;;;;;;;5074420;28;19912;-74
2023/03/29 11:43:43;;;;;;;;;;;;;;;;;;5074617;28;19921;-74
2023/03/29 11:46:09;;;;;;;;;;;;;;;;;;5074617;28;19909;-73
2023/03/29 11:48:36;;;;;;;;;;;;;;;;;;5074884;28;19913;-73
2023/03/29 11:51:02;;;;;;;;;;;;;;;;;;5073247;28;19909;-73
2023/03/29 11:53:30;;;;;;;;;;;;;;;;;;5074462;28;19916;-73
2023/03/29 11:55:56;;;;;;;;;;;;;;;;;;5074914;28;19962;-73
2023/03/29 11:58:23;;;;;;;;;;;;;;;;;;5074262;28;19950;-73
2023/03/29 12:00:50;;;;;;;;;;;;;;;;;;5074316;28;19915;-73
2023/03/29 12:03:16;;;;;;;;;;;;;;;;;;5074366;28;19977;-73
2023/03/29 12:05:43;;;;;;;;;;;;;;;;;;5074114;28;19908;-73
2023/03/29 12:08:09;;;;;;;;;;;;;;;;;;5073412;28;19909;-73
2023/03/29 12:10:36;;;;;;;;;;;;;;;;;;5074497;28;19940;-73
2023/03/29 12:13:06;;;;;;;;;;;;;;;;;;5074304;28;19908;-74
2023/03/29 12:15:33;;;;;;;;;;;;;;;;;;5074177;28;19958;-74
2023/03/29 12:18:00;;;;;;;;;;;;;;;;;;5074025;28;20313;-73
2023/03/29 12:20:27;;;;;;;;;;;;;;;;;;5074001;28;19922;-73
2023/03/29 12:22:53;;;;;;;;;;;;;;;;;;5074178;28;19913;-73
2023/03/29 12:25:20;;;;;;;;;;;;;;;;;;5074152;28;19914;-74
2023/03/29 12:27:46;;;;;;;;;;;;;;;;;;5073923;28;19908;-74
2023/03/29 12:30:16;;;;;;;;;;;;;;;;;;5073896;28;20289;-74
2023/03/29 12:32:42;;;;;;;;;;;;;;;;;;5073896;28;19908;-73
2023/03/29 12:35:09;;;;;;;;;;;;;;;;;;5073829;28;20369;-74
2023/03/29 12:37:39;;;;;;;;;;;;;;;;;;5073787;28;19919;-73
2023/03/29 12:40:06;;;;;;;;;;;;;;;;;;5073877;28;19920;-73
2023/03/29 12:42:36;;;;;;;;;;;;;;;;;;5073322;28;19963;-73
2023/03/29 12:45:02;;;;;;;;;;;;;;;;;;5074072;28;20396;-73
2023/03/29 12:47:29;;;;;;;;;;;;;;;;;;5073831;28;19916;-75
2023/03/29 12:49:56;;;;;;;;;;;;;;;;;;5073626;28;20399;-72
2023/03/29 12:52:22;;;;;;;;;;;;;;;;;;5073645;28;20388;-74
2023/03/29 12:54:53;;;;;;;;;;;;;;;;;;5073607;28;20300;-75
2023/03/29 12:57:23;;;;;;;;;;;;;;;;;;5073593;28;19967;-74
2023/03/29 12:59:51;;;;;;;;;;;;;;;;;;5073553;28;19939;-74
2023/03/29 13:02:17;;;;;;;;;;;;;;;;;;5073841;28;19908;-74
2023/03/29 13:04:45;;;;;;;;;;;;;;;;;;5071802;28;19908;-74
2023/03/29 13:07:17;;;;;;;;;;;;;;;;;;5073507;28;19974;-74
2023/03/29 13:09:44;;;;;;;;;;;;;;;;;;5073555;28;19908;-75
2023/03/29 13:12:10;;;;;;;;;;;;;;;;;;5073467;28;19959;-74
2023/03/29 13:14:41;;;;;;;;;;;;;;;;;;5073662;28;19909;-74
2023/03/29 13:17:08;;;;;;;;;;;;;;;;;;5073534;28;19961;-74
2023/03/29 13:19:34;;;;;;;;;;;;;;;;;;5076942;28;19954;-75
2023/03/29 13:22:01;;;;;;;;;;;;;;;;;;5077360;28;20491;-72
2023/03/29 13:24:27;;;;;;;;;;;;;;;;;;5077654;28;20369;-71
2023/03/29 13:26:54;;;;;;;;;;;;;;;;;;5077440;28;19970;-72
2023/03/29 13:29:21;;;;;;;;;;;;;;;;;;5077226;28;19932;-73
2023/03/29 13:31:51;;;;;;;;;;;;;;;;;;5077164;28;19930;-72
2023/03/29 13:34:17;;;;;;;;;;;;;;;;;;5075751;28;19927;-72
2023/03/29 13:36:44;;;;;;;;;;;;;;;;;;5077254;28;19912;-72
2023/03/29 13:39:13;;;;;;;;;;;;;;;;;;5077152;28;19915;-72
2023/03/29 13:41:40;;;;;;;;;;;;;;;;;;5076499;28;20405;-71
2023/03/29 13:44:07;;;;;;;;;;;;;;;;;;5077404;28;20008;-72
2023/03/29 13:46:33;;;;;;;;;;;;;;;;;;5077190;28;19995;-72
2023/03/29 13:49:03;;;;;;;;;;;;;;;;;;5076956;28;19908;-74
2023/03/29 13:51:33;;;;;;;;;;;;;;;;;;5076867;28;19954;-73
2023/03/29 13:54:03;;;;;;;;;;;;;;;;;;5075381;28;19923;-73
2023/03/29 13:56:30;;;;;;;;;;;;;;;;;;5076951;28;19995;-74
2023/03/29 13:59:06;;;;;;;;;;;;;;;;;;5076860;28;19912;-73
2023/03/29 14:01:32;;;;;;;;;;;;;;;;;;5074992;28;19909;-74
2023/03/29 14:04:02;;;;;;;;;;;;;;;;;;5076383;28;19908;-74
2023/03/29 14:06:29;;;;;;;;;;;;;;;;;;5076524;28;19908;-74
2023/03/29 14:08:55;;;;;;;;;;;;;;;;;;5076491;28;19915;-73
2023/03/29 14:11:22;;;;;;;;;;;;;;;;;;5076487;28;20309;-72
2023/03/29 14:13:49;;;;;;;;;;;;;;;;;;5076766;28;19919;-72
2023/03/29 14:16:15;;;;;;;;;;;;;;;;;;5076378;28;19916;-74
2023/03/29 14:18:49;;;;;;;;;;;;;;;;;;5076513;28;19916;-73
2023/03/29 14:21:19;;;;;;;;;;;;;;;;;;5074589;28;20380;-73
2023/03/29 14:23:45;;;;;;;;;;;;;;;;;;5076238;28;20067;-74
2023/03/29 14:26:16;;;;;;;;;;;31.10;45.70;;;;;;5050398;28;19921;-74
2023/03/29 14:28:47;;;;;;;;;;;;;;;;;;5075412;28;19920;-74
2023/03/29 14:31:14;;;;;;;;;;;;;;;;;;5074345;28;19915;-74
2023/03/29 14:33:43;;;;;;;;;;;;;;;;;;5075709;28;19966;-73
2023/03/29 14:36:09;;;;;;;;;;;;;;;;;;5073534;28;19908;-74
2023/03/29 14:38:36;;;;;;;;;;;;;;;;;;5075583;28;19912;-73
2023/03/29 14:41:03;;;;;;;;;;;;;;;;;;5075416;28;19908;-73
2023/03/29 14:43:30;;;;;;;;;;;;;;;;;;5075323;28;20003;-73
2023/03/29 14:45:57;;;;;;;;;;;;;;;;;;5066418;28;21119;-73
2023/03/29 14:48:23;;;;;;;;;;;;;;;;;;5058892;28;20356;-73
2023/03/29 14:50:50;;;;;;;;;;;;;;;;;;5075245;28;19932;-73
2023/03/29 14:53:20;;;;;;;;;;;;;;;;;;5075101;28;19921;-72
2023/03/29 14:55:48;;;;;;;;;;;;;;;;;;5061956;28;19908;-73
2023/03/29 14:58:15;;;;;;;;;;;;;;;;;;5074078;28;19908;-73
2023/03/29 15:00:42;;;;;;;;;;;;;;;;;;5075254;28;19991;-74
2023/03/29 15:03:08;;;;;;;;;;;;;;;;;;5075122;28;20334;-73
2023/03/29 15:05:35;;;;;;;;;;;;;;;;;;5074954;28;20292;-72
2023/03/29 15:08:01;;;;;;;;;;;;;;;;;;5074959;28;19993;-73
2023/03/29 15:10:28;;;;;;;;;;;;;;;;;;5075235;28;20341;-73
2023/03/29 15:12:54;;;;;;;;;;;;;;;;;;5074873;28;19912;-73
2023/03/29 15:15:21;;;;;;;;;;;;;;;;;;5075134;28;19908;-73
2023/03/29 15:17:48;;;;;;;;;;;;;;;;;;5074435;28;19908;-73
2023/03/29 15:20:14;;;;;;;;;;;;;;;;;;5074757;28;20395;-74
2023/03/29 15:22:41;;;;;;;;;;;;;;;;;;5074863;28;19958;-73
2023/03/29 15:25:07;;;;;;;;;;;;;;;;;;5073324;28;19915;-75
2023/03/29 15:27:34;;;;;;;;;;;;;;;;;;5075067;28;19915;-73
2023/03/29 15:30:03;;;;;;;;;;;;;;;;;;5074957;28;19932;-74
2023/03/29 15:32:33;;;;;;;;;;;;;;;;;;5074825;28;19912;-72
2023/03/29 15:34:59;;;;;;;;;;;;;;;;;;5056653;28;19955;-73
2023/03/29 15:37:25;;;;;;;;;;;;;;;;;;5055196;28;19920;-73
2023/03/29 15:39:52;;;;;;;;;;;;;;;;;;5054222;28;19909;-74
2023/03/29 15:42:18;;;;;;;;;;;;;;;;;;5062117;28;19917;-72
2023/03/29 15:44:45;;;;;;;;;;;;;;;;;;5074822;28;19909;-74
2023/03/29 15:47:12;;;;;;;;;;;;;;;;;;5058631;28;19909;-73
2023/03/29 15:49:38;;;;;;;;;;;;;;;;;;5054979;28;19931;-73
2023/03/29 15:52:08;;;;;;;;;;;;;;;;;;5054510;28;19916;-74
2023/03/29 15:54:37;;;;;;;;;;;;;;;;;;5054405;28;20007;-72
2023/03/29 15:57:03;;;;;;;;;;;;;;;;;;5056174;28;19909;-73
2023/03/29 15:59:30;;;;;;;;;;;;;;;;;;5053849;28;19955;-73
2023/03/29 16:01:57;;;;;;;;;;;;;;;;;;5054399;28;19913;-72
2023/03/29 16:04:26;;;;;;;;;;;;;;;;;;5054130;28;19915;-73
2023/03/29 16:06:53;;;;;;;;;;;;;;;;;;5053786;28;20011;-73
2023/03/29 16:09:19;;;;;;;;;;;;;;;;;;5054176;28;19916;-72
2023/03/29 16:11:46;;;;;;;;;;;;;;;;;;5053806;28;20408;-73
2023/03/29 16:14:12;;;;;;;;;;;;;;;;;;5054177;28;20434;-73
2023/03/29 16:16:39;;;;;;;;;;;;;;;;;;5066449;28;19908;-73
2023/03/29 16:19:05;;;;;;;;;;;;;;;;;;5073673;28;19913;-73
2023/03/29 16:21:32;;;;;;;;;;;;;;;;;;5074010;28;19953;-73
2023/03/29 16:23:59;;;;;;;;;;;;;;;;;;5073320;28;19947;-72
2023/03/29 16:26:26;;;;;;;;;;;;;;;;;;5062328;28;20432;-73
2023/03/29 16:28:52;;;;;;;;;;;;;;;;;;5053164;28;19908;-73
2023/03/29 16:31:19;;;;;;;;;;;;;;;;;;5053564;28;19909;-73
2023/03/29 16:33:45;;;;;;;;;;;;;;;;;;5053650;28;19913;-73
2023/03/29 16:36:16;;;;;;;;;;;;;;;;;;5053784;28;19908;-73
2023/03/29 16:38:42;;;;;;;;;;;;;;;;;;5053724;28;20270;-73
2023/03/29 16:41:09;;;;;;;;;;;;;;;;;;5054203;28;19919;-72
2023/03/29 16:43:37;;;;;;;;;;;;;;;;;;5053254;28;19960;-72
2023/03/29 16:46:06;;;;;;;;;;;;;;;;;;5053821;28;19916;-72